Time;durP1;ratioP1;P1;durP2;ratioP2;P2;SDS_P1;SDS_P2;PMS_P1;PMS_P2;Temp;Humidity;BMP_temperature;BMP_pressure;BME280_temperature;BME280_humidity;BME280_pressure;Samples;Min_cycle;Max_cycle;Signal;HPM_P1;HPM_P2
2023/11/26 00:01:46;;;;;;;2.97;1.38;;;;;;;6.85;50.96;100598.16;5085838;27;99391;-75
2023/11/26 00:04:12;;;;;;;2.38;1.30;;;;;;;6.90;50.50;100601.53;5077127;27;97560;-75
2023/11/26 00:06:42;;;;;;;2.92;1.80;;;;;;;6.77;50.76;100601.81;5080187;27;97254;-76
2023/11/26 00:09:09;;;;;;;9.35;1.60;;;;;;;6.65;51.58;100598.59;5090993;27;96941;-75
2023/11/26 00:11:35;;;;;;;5.00;1.65;;;;;;;6.67;51.61;100600.31;5086450;27;97987;-75
2023/11/26 00:14:02;;;;;;;2.00;1.35;;;;;;;6.43;53.02;100600.84;5075497;27;99106;-75
2023/11/26 00:16:36;;;;;;;2.83;1.20;;;;;;;6.63;52.83;100603.88;5088100;27;96850;-75
2023/11/26 00:19:02;;;;;;;2.72;1.38;;;;;;;6.76;51.98;100597.47;5084361;27;96867;-75
2023/11/26 00:21:29;;;;;;;1.58;1.08;;;;;;;6.82;52.21;100601.72;5091010;27;97723;-75
2023/11/26 00:23:56;;;;;;;3.83;1.10;;;;;;;6.82;52.36;100599.09;5085230;27;97730;-75
2023/11/26 00:26:24;;;;;;;3.25;1.40;;;;;;;7.02;51.98;100603.91;5085603;27;97201;-75
2023/11/26 00:28:50;;;;;;;3.35;1.17;;;;;;;6.84;52.07;100605.16;5078938;27;97237;-75
2023/11/26 00:31:17;;;;;;;3.00;1.00;;;;;;;6.67;52.58;100608.19;5086929;27;98155;-75
2023/11/26 00:33:48;;;;;;;3.30;1.20;;;;;;;6.49;53.30;100605.97;5085884;27;99128;-75
2023/11/26 00:36:15;;;;;;;1.80;1.10;;;;;;;6.15;55.00;100613.66;5080739;27;98755;-75
2023/11/26 00:38:41;;;;;;;4.32;1.48;;;;;;;6.08;56.32;100616.41;5082058;27;96770;-75
2023/11/26 00:41:08;;;;;;;2.65;1.38;;;;;;;5.97;55.59;100622.69;5076712;27;99310;-75
2023/11/26 00:43:35;;;;;;;2.58;1.13;;;;;;;6.08;56.17;100627.78;5081424;27;99984;-75
2023/11/26 00:46:01;;;;;;;1.83;0.73;;;;;;;6.41;56.18;100639.38;5084562;27;96832;-74
2023/11/26 00:48:28;;;;;;;1.75;1.02;;;;;;;6.16;56.12;100644.22;5086683;27;96809;-74
2023/11/26 00:50:55;;;;;;;2.15;1.25;;;;;;;6.34;56.17;100648.25;5083104;27;98335;-74
2023/11/26 00:53:22;;;;;;;3.03;1.00;;;;;;;6.43;55.57;100647.22;5087444;27;98894;-75
2023/11/26 00:55:48;;;;;;;3.28;1.25;;;;;;;6.68;54.01;100644.06;5078653;27;96850;-75
2023/11/26 00:58:15;;;;;;;1.55;0.90;;;;;;;6.77;54.42;100649.09;5085320;27;96810;-75
2023/11/26 01:00:42;;;;;;;1.92;1.25;;;;;;;6.51;54.71;100651.38;5093748;27;100762;-75
2023/11/26 01:03:09;;;;;;;1.65;1.20;;;;;;;6.43;55.03;100653.34;5078339;27;101182;-75
2023/11/26 01:05:35;;;;;;;3.00;1.20;;;;;;;6.49;54.60;100645.34;5090812;27;96852;-75
2023/11/26 01:08:03;;;;;;;2.17;1.05;;;;;;;6.82;53.51;100651.63;5088763;27;97703;-74
2023/11/26 01:10:30;;;;;;;1.38;1.08;;;;;;;6.59;53.25;100657.34;5083254;27;99315;-75
2023/11/26 01:12:56;;;;;;;5.78;1.20;;;;;;;7.04;52.82;100658.13;5084182;27;97514;-75
2023/11/26 01:15:23;;;;;;;1.77;0.95;;;;;;;6.91;52.29;100663.69;5082106;27;96943;-74
2023/11/26 01:17:49;;;;;;;2.13;0.98;;;;;;;6.99;52.45;100672.28;5088926;27;99135;-75
2023/11/26 01:20:16;;;;;;;5.03;1.58;;;;;;;7.12;51.62;100671.97;5088948;27;98771;-74
2023/11/26 01:22:47;;;;;;;3.80;1.27;;;;;;;7.22;50.93;100674.41;5077365;27;98813;-74
2023/11/26 01:25:15;;;;;;;3.83;1.00;;;;;;;7.04;51.19;100675.66;5091712;27;96710;-74
2023/11/26 01:27:41;;;;;;;1.15;0.95;;;;;;;7.04;50.31;100667.78;5084754;27;97155;-75
2023/11/26 01:30:09;;;;;;;1.85;1.05;;;;;;;7.11;49.94;100670.22;5085913;27;98821;-74
2023/11/26 01:32:36;;;;;;;2.17;1.05;;;;;;;7.08;49.63;100672.06;5088769;27;100194;-74
2023/11/26 01:35:02;;;;;;;1.92;0.95;;;;;;;7.12;48.12;100671.09;5089946;27;96784;-74
2023/11/26 01:37:29;;;;;;;1.58;0.80;;;;;;;6.80;47.70;100663.94;5085986;27;98214;-74
2023/11/26 01:39:56;;;;;;;1.27;0.90;;;;;;;6.49;48.29;100670.72;5084111;27;98908;-75
2023/11/26 01:42:23;;;;;;;3.08;1.00;;;;;;;6.76;48.11;100665.72;5080105;27;98894;-75
2023/11/26 01:44:50;;;;;;;1.35;0.80;;;;;;;6.84;48.07;100670.84;5083636;27;96772;-75
2023/11/26 01:47:16;;;;;;;1.88;0.73;;;;;;;7.07;47.28;100671.22;5080712;27;97218;-74
2023/11/26 01:49:43;;;;;;;3.47;0.80;;;;;;;6.93;46.53;100672.41;5079524;27;99391;-74
2023/11/26 01:52:11;;;;;;;3.95;0.98;;;;;;;6.85;46.05;100671.69;5083061;27;99026;-74
2023/11/26 01:54:42;;;;;;;2.78;0.65;;;;;;;6.74;46.05;100678.06;5086496;27;98678;-76
2023/11/26 01:57:10;;;;;;;1.90;0.68;;;;;;;6.64;46.12;100678.25;5094189;27;96843;-76
2023/11/26 01:59:38;;;;;;;2.08;0.90;;;;;;;6.48;46.71;100677.72;5087715;27;99380;-74
2023/11/26 02:02:05;;;;;;;2.42;0.75;;;;;;;6.55;45.77;100683.72;5084116;27;98776;-74
2023/11/26 02:04:31;;;;;;;0.80;0.60;;;;;;;6.52;45.83;100683.75;5092041;27;97147;-75
2023/11/26 02:06:58;;;;;;;2.58;0.68;;;;;;;6.60;45.68;100684.47;5079807;27;96820;-74
2023/11/26 02:09:25;;;;;;;4.10;0.70;;;;;;;6.45;46.59;100683.03;5086846;27;99545;-74
2023/11/26 02:11:51;;;;;;;1.20;0.70;;;;;;;6.49;46.52;100675.97;5079016;27;100128;-74
2023/11/26 02:14:18;;;;;;;1.80;0.63;;;;;;;6.68;46.18;100680.81;5072867;27;96784;-74
2023/11/26 02:16:47;;;;;;;1.77;0.80;;;;;;;6.55;46.72;100684.59;5075107;27;96789;-74
2023/11/26 02:19:25;;;;;;;2.13;0.80;;;;;;;6.63;45.85;100682.66;5073472;27;99333;-74
2023/11/26 02:21:52;;;;;;;4.97;0.80;;;;;;;6.70;46.33;100688.63;5087449;27;97549;-75
2023/11/26 02:24:27;;;;;;;1.40;0.85;;;;;;;6.72;45.96;100692.97;5076174;27;97750;-74
2023/11/26 02:26:55;;;;;;;1.23;0.70;;;;;;;6.80;45.93;100693.69;5080815;27;97101;-74
2023/11/26 02:29:22;;;;;;;1.45;0.50;;;;;;;6.44;45.76;100691.78;5077416;27;99132;-74
2023/11/26 02:31:50;;;;;;;1.10;0.60;;;;;;;6.78;45.77;100687.59;5084463;27;98862;-74
2023/11/26 02:34:16;;;;;;;1.20;0.82;;;;;;;6.75;45.62;100692.94;5076472;27;97651;-75
2023/11/26 02:36:42;;;;;;;2.50;1.08;;;;;;;6.59;45.52;100701.13;5082319;27;96887;-75
2023/11/26 02:39:09;;;;;;;1.48;0.52;;;;;;;6.71;46.02;100708.75;5078864;27;98912;-75
2023/11/26 02:41:36;;;;;;;1.27;0.80;;;;;;;6.85;45.63;100700.59;5085165;27;99322;-72
2023/11/26 02:44:04;;;;;;;2.85;0.82;;;;;;;6.70;45.83;100709.63;5082076;27;96754;-72
2023/11/26 02:46:31;;;;;;;2.47;0.90;;;;;;;6.64;45.93;100709.78;5078650;27;96810;-72
2023/11/26 02:48:57;;;;;;;2.60;1.15;;;;;;;6.53;46.41;100706.50;5074822;27;101678;-72
2023/11/26 02:51:23;;;;;;;1.45;0.70;;;;;;;6.55;46.28;100716.09;5089602;27;98291;-72
2023/11/26 02:53:50;;;;;;;1.80;0.90;;;;;;;6.60;46.75;100713.34;5084767;27;97626;-72
2023/11/26 02:56:17;;;;;;;2.10;0.82;;;;;;;6.59;47.43;100717.75;5093565;27;98343;-73
2023/11/26 02:58:43;;;;;;;2.47;1.10;;;;;;;6.80;47.53;100727.81;5082632;27;98529;-72
2023/11/26 03:01:17;;;;;;;2.70;1.00;;;;;;;6.72;47.21;100719.22;5086434;27;97497;-72
2023/11/26 03:03:44;;;;;;;3.22;1.40;;;;;;;6.63;47.69;100726.44;5090498;27;96749;-76
2023/11/26 03:06:11;;;;;;;2.85;1.40;;;;;;;6.49;48.44;100716.22;5079412;27;97171;-77
2023/11/26 03:08:38;;;;;;;4.43;1.63;;;;;;;6.57;48.42;100719.53;5084736;27;99183;-77
2023/11/26 03:13:51;;;;;;;4.28;1.77;;;;;;;6.23;49.98;100728.94;5080322;27;98826;-77
2023/11/26 03:16:18;;;;;;;3.40;1.77;;;;;;;6.50;49.70;100733.66;5087206;27;97888;-76
2023/11/26 03:18:46;;;;;;;2.78;1.00;;;;;;;6.35;50.69;100739.22;5094204;27;101341;-77
2023/11/26 03:21:17;;;;;;;3.67;1.52;;;;;;;6.52;50.28;100736.25;5088103;27;101499;-77
2023/11/26 03:23:45;;;;;;;5.30;1.38;;;;;;;6.16;49.85;100733.44;5084860;27;96864;-76
2023/11/26 03:26:12;;;;;;;3.78;1.50;;;;;;;6.27;50.08;100736.72;5087472;27;97174;-76
2023/11/26 03:28:38;;;;;;;3.85;1.63;;;;;;;6.37;49.63;100737.41;5092499;27;98849;-76
2023/11/26 03:31:05;;;;;;;4.22;1.40;;;;;;;6.71;49.41;100740.25;5084836;27;98892;-76
2023/11/26 03:33:34;;;;;;;2.90;1.40;;;;;;;6.62;48.73;100750.97;5087863;27;96823;-75
2023/11/26 03:36:00;;;;;;;4.57;1.42;;;;;;;6.73;48.27;100739.34;5090617;27;96743;-74
2023/11/26 03:38:28;;;;;;;2.95;1.30;;;;;;;6.79;48.77;100744.47;5093098;27;98904;-74
2023/11/26 03:40:54;;;;;;;2.08;1.45;;;;;;;6.68;49.71;100738.59;5091744;27;99534;-74
2023/11/26 03:43:21;;;;;;;2.85;1.20;;;;;;;6.47;49.03;100740.75;5094226;27;97025;-76
2023/11/26 03:45:48;;;;;;;2.83;1.00;;;;;;;6.26;49.60;100748.13;5095169;27;96774;-75
2023/11/26 03:48:14;;;;;;;4.65;1.00;;;;;;;6.44;49.66;100741.66;5089302;27;98811;-75
2023/11/26 03:50:42;;;;;;;3.50;1.33;;;;;;;6.78;49.53;100740.13;5083492;27;97528;-75
2023/11/26 03:53:09;;;;;;;3.83;1.30;;;;;;;6.57;50.56;100740.53;5077193;27;96710;-75
2023/11/26 03:55:35;;;;;;;2.25;1.40;;;;;;;6.48;51.27;100745.97;5087261;27;101255;-75
2023/11/26 03:58:02;;;;;;;3.85;1.50;;;;;;;6.44;51.98;100738.16;5085911;27;99257;-74
2023/11/26 04:00:28;;;;;;;2.55;1.38;;;;;;;6.48;52.46;100750.34;5086922;27;99042;-74
2023/11/26 04:02:55;;;;;;;4.38;1.60;;;;;;;6.12;53.07;100749.25;5080484;27;96739;-75
2023/11/26 04:05:21;;;;;;;3.53;1.30;;;;;;;6.28;52.65;100743.72;5091687;27;97065;-75
2023/11/26 04:07:49;;;;;;;1.98;1.15;;;;;;;6.04;52.95;100745.91;5087598;27;98252;-75
2023/11/26 04:10:15;;;;;;;3.55;1.33;;;;;;;5.98;53.73;100754.72;5087898;27;98582;-74
2023/11/26 04:12:42;;;;;;;2.72;1.38;;;;;;;5.88;53.85;100754.03;5081729;27;96984;-75
2023/11/26 04:15:09;;;;;;;2.33;1.27;;;;;;;5.86;54.50;100754.88;5087932;27;96735;-75
2023/11/26 04:17:37;;;;;;;4.80;1.25;;;;;;;5.96;54.03;100752.16;5084121;27;99876;-74
2023/11/26 04:20:05;;;;;;;2.28;1.13;;;;;;;6.02;53.78;100760.78;5088979;27;99132;-75
2023/11/26 04:22:33;;;;;;;2.33;0.98;;;;;;;6.22;53.11;100769.19;5090224;27;96750;-75
2023/11/26 04:25:01;;;;;;;1.70;1.05;;;;;;;5.93;53.84;100767.91;5088985;27;96720;-75
2023/11/26 04:27:27;;;;;;;1.40;0.90;;;;;;;5.98;54.22;100770.47;5083176;27;100001;-75
2023/11/26 04:29:54;;;;;;;1.50;0.90;;;;;;;6.29;54.22;100768.19;5084659;27;98744;-76
2023/11/26 04:32:20;;;;;;;1.98;1.33;;;;;;;6.39;53.26;100768.00;5085411;27;96779;-75
2023/11/26 04:34:47;;;;;;;1.27;0.90;;;;;;;6.24;53.67;100772.63;5084302;27;99396;-75
2023/11/26 04:37:14;;;;;;;1.83;0.95;;;;;;;6.35;52.77;100774.22;5085599;27;99060;-76
2023/11/26 04:39:41;;;;;;;3.05;1.00;;;;;;;6.31;52.52;100780.38;5085172;27;98907;-75
2023/11/26 04:42:08;;;;;;;1.33;0.90;;;;;;;6.31;52.35;100780.38;5085406;27;96767;-75
2023/11/26 04:44:35;;;;;;;2.33;0.93;;;;;;;5.95;52.60;100781.00;5079775;27;97158;-76
2023/11/26 04:47:02;;;;;;;1.65;1.00;;;;;;;6.00;52.90;100784.41;5092550;27;99227;-76
2023/11/26 04:49:28;;;;;;;2.00;0.90;;;;;;;6.04;53.09;100780.00;5084991;27;98816;-76
2023/11/26 04:51:54;;;;;;;2.38;0.85;;;;;;;6.03;53.33;100788.75;5085992;27;98923;-76
2023/11/26 04:54:21;;;;;;;1.52;1.00;;;;;;;5.89;53.44;100788.97;5088179;27;97185;-75
2023/11/26 04:56:48;;;;;;;2.35;1.17;;;;;;;5.85;53.86;100795.13;5081711;27;97618;-75
2023/11/26 04:59:16;;;;;;;2.08;1.08;;;;;;;5.93;53.35;100796.78;5084764;27;102177;-75
2023/11/26 05:01:44;;;;;;;4.20;0.98;;;;;;;5.69;54.83;100796.25;5086315;27;97856;-76
2023/11/26 05:04:11;;;;;;;2.40;0.90;;;;;;;5.87;54.71;100790.72;5085272;27;96933;-76
2023/11/26 05:06:37;;;;;;;2.72;1.10;;;;;;;5.78;54.22;100789.09;5088551;27;98937;-76
2023/11/26 05:09:05;;;;;;;1.63;1.00;;;;;;;5.92;52.64;100795.03;5077272;27;100086;-76
2023/11/26 05:11:32;;;;;;;1.77;1.00;;;;;;;6.04;52.13;100801.81;5088692;27;99255;-76
2023/11/26 05:13:58;;;;;;;4.53;1.20;;;;;;;5.84;53.17;100796.03;5079142;27;97029;-76
2023/11/26 05:16:26;;;;;;;1.92;1.02;;;;;;;5.99;53.80;100799.28;5076833;27;98991;-75
2023/11/26 05:18:52;;;;;;;1.50;1.00;;;;;;;5.93;53.62;100801.16;5085959;27;99246;-76
2023/11/26 05:21:19;;;;;;;1.98;1.30;;;;;;;5.71;53.55;100803.19;5081190;27;96748;-76
2023/11/26 05:23:45;;;;;;;1.17;1.00;;;;;;;5.84;53.36;100806.50;5083364;27;96836;-76
2023/11/26 05:26:14;;;;;;;4.32;1.27;;;;;;;5.75;53.68;100810.13;5089061;27;99908;-76
2023/11/26 05:28:41;;;;;;;2.33;1.20;;;;;;;5.77;54.01;100805.75;5087541;27;101013;-76
2023/11/26 05:31:07;;;;;;;3.95;1.17;;;;;;;5.68;53.95;100813.72;5088164;27;97155;-76
2023/11/26 05:33:35;;;;;;;0.98;0.90;;;;;;;5.77;54.96;100808.38;5082804;27;96931;-76
2023/11/26 05:36:04;;;;;;;2.35;1.27;;;;;;;5.67;55.90;100812.00;5081510;27;100608;-75
2023/11/26 05:38:30;;;;;;;3.45;1.45;;;;;;;5.90;55.76;100809.06;5090346;27;99252;-75
2023/11/26 05:40:56;;;;;;;2.60;1.20;;;;;;;5.50;56.87;100816.63;5078842;27;96816;-75
2023/11/26 05:43:22;;;;;;;1.45;1.20;;;;;;;5.70;57.44;100814.59;5081009;27;96845;-76
2023/11/26 05:45:48;;;;;;;;;;;;;;;5.67;58.26;100813.75;5084859;27;98177;-75
2023/11/26 05:48:15;;;;;;;1.13;0.85;;;;;;;5.70;58.26;100811.97;5084925;27;101784;-75
2023/11/26 05:50:43;;;;;;;1.95;1.13;;;;;;;5.92;57.91;100812.53;5084532;27;97156;-76
2023/11/26 05:53:09;;;;;;;6.90;2.90;;;;;;;5.94;58.09;100819.50;5085088;27;99046;-75
2023/11/26 05:55:35;;;;;;;6.13;1.95;;;;;;;6.05;58.03;100823.69;5088389;27;99606;-75
2023/11/26 05:58:02;;;;;;;5.82;1.80;;;;;;;5.91;59.19;100826.53;5078630;27;97513;-75
2023/11/26 06:00:28;;;;;;;2.88;1.60;;;;;;;5.83;59.56;100834.50;5075798;27;98733;-75
2023/11/26 06:02:56;;;;;;;3.40;1.40;;;;;;;6.00;59.56;100829.00;5085125;27;96787;-75
2023/11/26 06:05:22;;;;;;;2.88;1.83;;;;;;;5.89;59.64;100828.31;5086157;27;99244;-76
2023/11/26 06:07:50;;;;;;;4.65;2.42;;;;;;;6.19;59.25;100827.81;5087851;27;98722;-75
2023/11/26 06:10:17;;;;;;;5.45;2.70;;;;;;;6.31;58.89;100824.13;5086633;27;96764;-75
2023/11/26 06:12:43;;;;;;;3.35;2.60;;;;;;;6.64;58.21;100830.56;5088765;27;96764;-75
2023/11/26 06:15:11;;;;;;;4.30;3.00;;;;;;;6.70;57.91;100839.19;5078962;27;98820;-75
2023/11/26 06:17:37;;;;;;;5.40;2.10;;;;;;;6.53;58.26;100836.00;5083963;27;99090;-75
2023/11/26 06:20:05;;;;;;;4.57;2.30;;;;;;;6.37;58.80;100845.03;5078762;27;96795;-75
2023/11/26 06:22:32;;;;;;;4.85;2.22;;;;;;;6.37;59.59;100839.78;5079012;27;96914;-76
2023/11/26 06:24:59;;;;;;;2.70;2.20;;;;;;;6.05;60.86;100849.91;5078223;27;101682;-76
2023/11/26 06:27:26;;;;;;;5.78;2.40;;;;;;;6.04;61.48;100854.28;5082199;27;97735;-75
2023/11/26 06:29:53;;;;;;;2.50;2.08;;;;;;;6.06;61.08;100854.28;5083161;27;96794;-76
2023/11/26 06:32:19;;;;;;;4.20;2.75;;;;;;;6.49;59.74;100857.09;5086916;27;96711;-76
2023/11/26 06:34:46;;;;;;;3.75;2.28;;;;;;;6.36;60.38;100848.56;5087417;27;97738;-75
2023/11/26 06:37:12;;;;;;;4.13;2.17;;;;;;;6.24;60.65;100851.34;5081950;27;99613;-75
2023/11/26 06:39:38;;;;;;;3.42;1.65;;;;;;;6.18;60.66;100856.72;5077935;27;100765;-76
2023/11/26 06:42:06;;;;;;;3.83;1.92;;;;;;;5.84;61.15;100861.59;5094230;27;96781;-76
2023/11/26 06:44:33;;;;;;;4.25;2.00;;;;;;;5.94;60.97;100868.44;5085114;27;101057;-76
2023/11/26 06:47:01;;;;;;;3.65;2.45;;;;;;;5.70;61.33;100866.16;5091391;27;98970;-75
2023/11/26 06:49:27;;;;;;;4.28;2.53;;;;;;;5.97;60.71;100863.19;5090565;27;96794;-75
2023/11/26 06:51:55;;;;;;;4.82;2.15;;;;;;;5.70;61.27;100869.66;5088201;27;101098;-75
2023/11/26 06:54:22;;;;;;;4.68;1.95;;;;;;;5.73;62.09;100871.34;5079670;27;98856;-75
2023/11/26 06:56:51;;;;;;;4.85;2.83;;;;;;;5.47;62.76;100871.69;5084190;27;98963;-75
2023/11/26 06:59:19;;;;;;;5.50;2.63;;;;;;;5.77;61.74;100873.06;5087045;27;97936;-75
2023/11/26 07:01:45;;;;;;;3.45;2.20;;;;;;;5.48;62.87;100873.41;5085018;27;96964;-75
2023/11/26 07:04:12;;;;;;;1.95;1.75;;;;;;;5.43;63.19;100877.88;5088229;27;101151;-76
2023/11/26 07:06:41;;;;;;;2.58;1.80;;;;;;;5.66;62.18;100883.66;5077353;27;99139;-75
2023/11/26 07:09:09;;;;;;;3.38;1.95;;;;;;;5.62;62.24;100881.97;5084191;27;96981;-76
2023/11/26 07:11:36;;;;;;;3.58;2.28;;;;;;;5.22;63.34;100887.72;5090457;27;97223;-74
2023/11/26 07:14:02;;;;;;;4.30;2.03;;;;;;;5.35;63.05;100891.06;5080862;27;99269;-74
2023/11/26 07:16:30;;;;;;;2.28;1.92;;;;;;;5.47;62.57;100892.66;5091350;27;99069;-74
2023/11/26 07:18:57;;;;;;;5.60;2.42;;;;;;;5.43;62.93;100894.47;5091973;27;96736;-74
2023/11/26 07:21:24;;;;;;;4.20;2.08;;;;;;;5.60;62.50;100892.47;5091348;27;97125;-74
2023/11/26 07:23:51;;;;;;;4.13;2.30;;;;;;;5.69;61.68;100896.75;5083274;27;101297;-75
2023/11/26 07:26:21;;;;;;;4.95;2.30;;;;;;;5.73;61.38;100895.81;5092371;27;100666;-74
2023/11/26 07:28:50;;;;;;;4.10;2.15;;;;;;;5.37;62.40;100906.75;5088990;27;97949;-74
2023/11/26 07:31:18;;;;;;;5.28;2.15;;;;;;;5.26;62.38;100903.38;5088788;27;97183;-74
2023/11/26 07:33:46;;;;;;;5.00;2.08;;;;;;;5.15;62.28;100906.13;5092355;27;100290;-76
2023/11/26 07:36:16;;;;;;;2.97;2.10;;;;;;;5.36;62.49;100910.25;5086171;27;101917;-76
2023/11/26 07:38:43;;;;;;;6.40;2.25;;;;;;;5.27;62.92;100919.09;5087183;27;96728;-76
2023/11/26 07:41:10;;;;;;;3.72;2.10;;;;;;;5.63;61.94;100914.31;5086573;27;98750;-75
2023/11/26 07:43:39;;;;;;;6.70;2.17;;;;;;;5.12;62.13;100914.03;5085721;27;99536;-74
2023/11/26 07:46:07;;;;;;;3.42;2.83;;;;;;;5.31;61.14;100907.72;5091450;27;98098;-74
2023/11/26 07:48:33;;;;;;;4.63;2.33;;;;;;;5.27;60.74;100907.75;5082026;27;97875;-74
2023/11/26 07:51:02;;;;;;;4.45;2.15;;;;;;;5.38;60.59;100913.75;5079075;27;98095;-73
2023/11/26 07:53:29;;;;;;;6.10;2.58;;;;;;;5.17;61.39;100913.09;5083007;27;98161;-74
2023/11/26 07:55:56;;;;;;;4.00;2.20;;;;;;;5.56;60.33;100918.75;5084726;27;98442;-73
2023/11/26 07:58:24;;;;;;;3.00;2.40;;;;;;;5.73;58.75;100916.78;5086854;27;98644;-74
2023/11/26 08:00:50;;;;;;;4.70;2.08;;;;;;;5.71;59.72;100917.72;5086532;27;98766;-75
2023/11/26 08:03:17;;;;;;;4.18;2.58;;;;;;;5.90;58.54;100920.09;5079522;27;99808;-75
2023/11/26 08:05:43;;;;;;;3.00;2.40;;;;;;;5.91;58.42;100916.56;5087884;27;98729;-75
2023/11/26 08:08:13;;;;;;;3.83;2.00;;;;;;;5.83;57.32;100920.16;5082520;27;98096;-74
2023/11/26 08:10:39;;;;;;;4.78;2.00;;;;;;;5.43;58.30;100919.78;5072308;27;98407;-75
2023/11/26 08:13:07;;;;;;;4.60;2.20;;;;;;;5.57;58.62;100915.25;5074482;27;99987;-75
2023/11/26 08:15:34;;;;;;;4.35;2.35;;;;;;;5.92;57.79;100917.44;5079717;27;99526;-74
2023/11/26 08:18:00;;;;;;;3.42;2.53;;;;;;;5.93;56.89;100920.03;5075413;27;96806;-76
2023/11/26 08:20:27;;;;;;;5.32;2.80;;;;;;;6.34;55.80;100918.56;5089241;27;98437;-76
2023/11/26 08:22:54;;;;;;;5.85;2.55;;;;;;;5.63;56.65;100927.41;5080450;27;98841;-76
2023/11/26 08:25:23;;;;;;;6.07;2.45;;;;;;;5.94;56.11;100915.66;5080713;27;99035;-75
2023/11/26 08:27:51;;;;;;;4.70;3.05;;;;;;;6.20;55.79;100920.53;5085413;27;96818;-76
2023/11/26 08:30:31;;;;;;;4.60;3.05;;;;;;;6.36;55.01;100924.69;5080199;27;98646;-75
2023/11/26 08:32:58;;;;;;;5.07;2.67;;;;;;;6.32;54.09;100917.72;5085183;27;97783;-76
2023/11/26 08:35:26;;;;;;;6.90;2.88;;;;;;;6.58;54.23;100920.81;5090298;27;102318;-76
2023/11/26 08:37:53;;;;;;;6.03;2.30;;;;;;;6.37;53.75;100921.13;5084106;27;97832;-76
2023/11/26 08:40:21;;;;;;;6.82;2.65;;;;;;;6.12;53.92;100925.03;5083255;27;97754;-76
2023/11/26 08:42:48;;;;;;;3.28;1.98;;;;;;;6.11;54.04;100932.03;5077182;27;98868;-77
2023/11/26 08:45:15;;;;;;;4.00;2.40;;;;;;;6.52;53.29;100935.78;5084437;27;99280;-76
2023/11/26 08:47:44;;;;;;;44.28;9.50;;;;;;;6.56;52.19;100927.84;5083268;27;97152;-75
2023/11/26 08:50:11;;;;;;;10.35;3.75;;;;;;;6.34;52.05;100936.94;5081249;27;96821;-75
2023/11/26 08:52:38;;;;;;;3.25;2.10;;;;;;;6.42;51.88;100935.06;5089309;27;102041;-74
2023/11/26 08:55:05;;;;;;;5.03;2.25;;;;;;;6.45;51.19;100940.25;5082930;27;100660;-74
2023/11/26 08:57:33;;;;;;;7.45;3.30;;;;;;;6.93;50.91;100953.50;5069969;27;97808;-73
2023/11/26 09:00:00;;;;;;;4.68;2.38;;;;;;;6.68;51.00;100948.66;5076369;27;98869;-74
2023/11/26 09:02:26;;;;;;;2.55;1.50;;;;;;;6.73;50.40;100946.81;5072034;27;98872;-75
2023/11/26 09:04:53;;;;;;;2.72;1.92;;;;;;;7.00;49.25;100948.09;5072547;27;100793;-75
2023/11/26 09:07:19;;;;;;;2.80;1.88;;;;;;;6.49;50.13;100951.59;5075342;27;96895;-75
2023/11/26 09:09:46;;;;;;;2.72;2.05;;;;;;;6.85;50.03;100958.00;5073198;27;97691;-77
2023/11/26 09:12:12;;;;;;;4.25;1.88;;;;;;;6.93;49.22;100958.75;5076770;27;101209;-76
2023/11/26 09:14:40;;;;;;;5.18;2.00;;;;;;;6.79;49.78;100956.34;5073275;27;99470;-76
2023/11/26 09:17:07;;;;;;;3.90;2.22;;;;;;;7.07;49.83;100952.38;5074450;27;97704;-76
2023/11/26 09:19:33;;;;;;;3.60;1.88;;;;;;;6.85;49.23;100947.50;5074541;27;97009;-75
2023/11/26 09:22:02;;;;;;;4.80;1.90;;;;;;;6.89;49.32;100944.81;5075000;27;98838;-78
2023/11/26 09:24:29;;;;;;;6.20;2.30;;;;;;;7.27;48.90;100943.25;5072628;27;99448;-76
2023/11/26 09:26:56;;;;;;;3.35;2.20;;;;;;;7.49;48.03;100955.94;5086627;27;98427;-75
2023/11/26 09:29:22;;;;;;;4.22;2.22;;;;;;;7.56;46.96;100951.41;5072962;27;97227;-74
2023/11/26 09:31:50;;;;;;;4.35;2.10;;;;;;;8.07;45.98;100957.38;5077568;27;99985;-75
2023/11/26 09:34:17;;;;;;;4.00;1.85;;;;;;;7.48;46.20;100956.81;5088577;27;98885;-76
2023/11/26 09:36:45;;;;;;;4.45;1.75;;;;;;;7.28;46.98;100955.50;5083568;27;96755;-75
2023/11/26 09:39:12;;;;;;;2.28;1.60;;;;;;;6.49;48.21;100970.84;5078513;27;96783;-75
2023/11/26 09:41:38;;;;;;;5.32;1.95;;;;;;;6.70;48.18;100951.22;5086883;27;99093;-75
2023/11/26 09:44:07;;;;;;;5.43;2.50;;;;;;;6.88;48.24;100961.47;5088296;27;99229;-74
2023/11/26 09:46:35;;;;;;;1.98;1.45;;;;;;;6.73;47.57;100956.44;5082647;27;96738;-74
2023/11/26 09:49:03;;;;;;;2.15;1.35;;;;;;;6.59;47.96;100953.19;5093512;27;96888;-72
2023/11/26 09:51:31;;;;;;;4.75;2.30;;;;;;;6.75;47.63;100959.94;5084735;27;101507;-74
2023/11/26 09:53:58;;;;;;;3.13;1.90;;;;;;;7.06;46.90;100963.75;5083332;27;99188;-75
2023/11/26 09:56:25;;;;;;;3.22;1.55;;;;;;;6.95;46.12;100956.97;5074928;27;98779;-75
2023/11/26 09:58:51;;;;;;;4.22;1.88;;;;;;;7.02;46.58;100962.06;5082995;27;96943;-74
2023/11/26 10:01:18;;;;;;;4.03;1.58;;;;;;;6.94;45.79;100963.97;5088251;27;97883;-75
2023/11/26 10:03:58;;;;;;;3.75;1.48;;;;;;;7.19;45.45;100960.03;5086680;27;98970;-75
2023/11/26 10:06:27;;;;;;;3.00;1.50;;;;;;;7.16;45.14;100957.44;5081478;27;96778;-76
2023/11/26 10:08:54;;;;;;;2.30;1.65;;;;;;;7.31;45.23;100956.28;5090961;27;96886;-77
2023/11/26 10:11:22;;;;;;;3.28;1.60;;;;;;;7.27;44.46;100949.38;5090746;27;101337;-76
2023/11/26 10:13:48;;;;;;;5.07;1.77;;;;;;;7.43;44.48;100950.78;5080493;27;98913;-75
2023/11/26 10:16:27;;;;;;;3.28;1.80;;;;;;;7.76;43.62;100958.91;5078142;27;96939;-75
2023/11/26 10:18:54;;;;;;;7.10;3.60;;;;;;;7.74;43.64;100958.09;5090376;27;96972;-75
2023/11/26 10:21:20;;;;;;;3.67;1.75;;;;;;;7.91;42.84;100955.97;5077203;27;97791;-74
2023/11/26 10:23:49;;;;;;;1.60;1.23;;;;;;;7.46;43.11;100961.25;5083861;27;98773;-75
2023/11/26 10:26:22;;;;;;;3.33;2.05;;;;;;;7.65;42.57;100966.16;5086502;27;98643;-75
2023/11/26 10:29:08;;;;;;;2.75;1.50;;;;;;;7.61;42.42;100960.94;5084734;27;96746;-75
2023/11/26 10:31:35;;;;;;;2.22;1.50;;;;;;;7.38;42.38;100960.53;5076673;27;98199;-76
2023/11/26 10:34:08;;;;;;;1.60;1.40;;;;;;;7.35;42.61;100967.63;5082684;27;98711;-76
2023/11/26 10:36:35;;;;;;;4.05;1.23;;;;;;;6.96;43.42;100961.31;5078536;27;98350;-76
2023/11/26 10:39:04;;;;;;;3.53;1.42;;;;;;;7.12;43.84;100961.03;5075347;27;98470;-75
2023/11/26 10:41:34;;;;;;;2.35;1.60;;;;;;;7.29;43.51;100959.81;5081696;27;98876;-75
2023/11/26 10:44:01;;;;;;;2.72;1.15;;;;;;;7.08;43.40;100961.13;5074121;27;99461;-75
2023/11/26 10:46:29;;;;;;;3.03;1.25;;;;;;;7.07;43.76;100957.63;5086836;27;101465;-76
2023/11/26 10:49:02;;;;;;;2.90;1.10;;;;;;;7.43;43.45;100956.06;5079755;27;97464;-75
2023/11/26 10:51:31;;;;;;;1.67;1.10;;;;;;;7.61;42.77;100960.09;5079991;27;98202;-75
2023/11/26 10:54:05;;;;;;;3.42;1.65;;;;;;;7.74;42.60;100955.47;5088343;27;99785;-77
2023/11/26 10:56:38;;;;;;;6.07;1.52;;;;;;;7.86;42.73;100945.53;5081532;27;97653;-75
2023/11/26 10:59:07;;;;;;;3.25;1.08;;;;;;;8.19;42.13;100950.97;5083996;27;97636;-75
2023/11/26 11:01:35;;;;;;;1.55;1.10;;;;;;;8.11;41.92;100951.13;5077084;27;99155;-77
2023/11/26 11:04:02;;;;;;;5.88;1.35;;;;;;;7.91;42.22;100951.56;5077295;27;101803;-75
2023/11/26 11:06:32;;;;;;;4.72;1.20;;;;;;;7.47;43.53;100956.88;5082725;27;97611;-75
2023/11/26 11:09:00;;;;;;;15.80;7.55;;;;;;;7.44;43.00;100949.91;5079538;27;96930;-76
2023/11/26 11:11:39;;;;;;;5.47;1.60;;;;;;;7.59;43.02;100957.50;5080147;27;97659;-75
2023/11/26 11:14:09;;;;;;;3.95;1.10;;;;;;;7.05;44.25;100948.00;5078629;27;98810;-77
2023/11/26 11:16:36;;;;;;;5.93;1.10;;;;;;;6.84;44.75;100953.63;5090743;27;97262;-76
2023/11/26 11:19:03;;;;;;;1.85;1.02;;;;;;;7.08;44.33;100950.59;5096288;27;96930;-78
2023/11/26 11:21:29;;;;;;;5.22;1.25;;;;;;;7.49;43.75;100953.31;5084318;27;99070;-76
2023/11/26 11:23:57;;;;;;;2.92;1.00;;;;;;;7.44;43.67;100943.78;5091732;27;98805;-76
2023/11/26 11:26:25;;;;;;;2.45;1.42;;;;;;;7.69;43.25;100944.16;5082092;27;96739;-76
2023/11/26 11:28:54;;;;;;;3.78;1.40;;;;;;;7.28;43.47;100943.22;5083740;27;97695;-75
2023/11/26 11:31:21;;;;;;;2.15;1.05;;;;;;;7.51;43.42;100943.63;5084989;27;99368;-75
2023/11/26 11:34:18;;;;;;;4.32;1.40;;;;;;;7.42;43.39;100938.53;5075884;27;98832;-75
2023/11/26 11:36:52;;;;;;;3.10;1.40;;;;;;;7.11;44.20;100947.91;5080258;27;96957;-76